Time;durP1;ratioP1;P1;durP2;ratioP2;P2;SDS_P1;SDS_P2;PMS_P1;PMS_P2;Temp;Humidity;BMP_temperature;BMP_pressure;BME280_temperature;BME280_humidity;BME280_pressure;Samples;Min_cycle;Max_cycle;Signal;HPM_P1;HPM_P2
2024/01/15 00:00:13;;;;;;;25.50;13.23;;;;;;;;;;2615409;54;20346;-79
2024/01/15 00:05:43;;;;;;;50.80;20.70;;;;;;;;;;2615602;54;20929;-78
2024/01/15 00:11:12;;;;;;;14.50;10.60;;;;;;;;;;2614926;54;20369;-80
2024/01/15 00:16:42;;;;;;;53.27;22.07;;;;;;;;;;2614702;54;20399;-78
2024/01/15 00:22:12;;;;;;;36.50;20.33;;;;;;;;;;2614183;54;21005;-79
2024/01/15 00:27:41;;;;;;;28.80;18.10;;;;;;;;;;2614335;54;20363;-77
2024/01/15 00:33:12;;;;;;;26.90;12.23;;;;;;;;;;2613786;54;20370;-73
2024/01/15 00:38:42;;;;;;;42.40;16.20;;;;;;;;;;2612796;54;20379;-75
2024/01/15 00:44:11;;;;;;;39.80;19.70;;;;;;;;;;2612688;54;20502;-76
2024/01/15 00:49:41;;;;;;;45.43;23.90;;;;;;;;;;2613101;54;20395;-73
2024/01/15 00:55:11;;;;;;;30.97;15.83;;;;;;;;;;2612434;54;20553;-74
2024/01/15 01:00:41;;;;;;;40.77;19.03;;;;;;;;;;2612757;54;20403;-73
2024/01/15 01:06:10;;;;;;;22.47;9.20;;;;;;;;;;2613812;54;20479;-72
2024/01/15 01:11:40;;;;;;;27.80;16.67;;;;;;;;;;2613996;54;20403;-74
2024/01/15 01:17:09;;;;;;;21.50;13.37;;;;;;;;;;2613321;54;20342;-72
2024/01/15 01:22:39;;;;;;;43.23;22.27;;;;;;;;;;2612804;54;20373;-77
2024/01/15 01:28:09;;;;;;;21.83;12.43;;;;;;;;;;2612017;54;20464;-76
2024/01/15 01:33:42;;;;;;;21.37;10.80;;;;;;;;;;2613380;54;20482;-79
2024/01/15 01:39:12;;;;;;;23.40;13.33;;;;;;;;;;2613943;54;20415;-77
2024/01/15 01:44:42;;;;;;;16.17;9.20;;;;;;;;;;2613784;54;20398;-77
2024/01/15 01:50:11;;;;;;;29.90;16.90;;;;;;;;;;2614493;54;20424;-77
2024/01/15 01:55:41;;;;;;;24.40;14.50;;;;;;;;;;2614309;54;20920;-77
2024/01/15 02:01:11;;;;;;;20.23;10.83;;;;;;;;;;2613725;54;20382;-76
2024/01/15 02:12:48;;;;;;;20.97;12.27;;;;;;;;;;2613695;54;20426;-75
2024/01/15 02:18:18;;;;;;;15.87;10.20;;;;;;;;;;2613707;39;20748;-76
2024/01/15 02:23:47;;;;;;;22.70;13.27;;;;;;;;;;2614591;54;20402;-72
2024/01/15 02:29:18;;;;;;;20.63;12.07;;;;;;;;;;2613957;54;20390;-72
2024/01/15 02:34:47;;;;;;;12.90;9.23;;;;;;;;;;2614371;39;21073;-74
2024/01/15 02:37:32;;;;;;;17.27;12.43;;;;;;;;;;2614549;54;20407;-72
2024/01/15 02:39:58;;;;;;;15.47;9.67;;;;;;;;;;2614169;54;20412;-76
2024/01/15 02:45:28;;;;;;;24.00;13.37;;;;;;;;;;2614000;54;20423;-76
2024/01/15 02:50:57;;;;;;;19.50;9.10;;;;;;;;;;2613602;54;20410;-76
2024/01/15 02:56:27;;;;;;;22.27;13.43;;;;;;;;;;2613434;54;20395;-75
2024/01/15 03:01:57;;;;;;;21.37;15.60;;;;;;;;;;2613069;54;20362;-75
2024/01/15 03:11:07;;;;;;;11.83;8.47;;;;;;;;;;2613135;54;20394;-76
2024/01/15 03:16:36;;;;;;;30.60;13.47;;;;;;;;;;2614017;54;20365;-76
2024/01/15 03:19:21;;;;;;;20.37;9.23;;;;;;;;;;2612501;54;20438;-76
2024/01/15 03:21:48;;;;;;;32.30;14.47;;;;;;;;;;2612801;54;20459;-77
2024/01/15 03:27:17;;;;;;;19.27;13.60;;;;;;;;;;2612879;54;20370;-78
2024/01/15 03:32:47;;;;;;;13.70;4.17;;;;;;;;;;2614039;54;20381;-73
2024/01/15 03:38:16;;;;;;;13.10;9.00;;;;;;;;;;2613044;54;20400;-72
2024/01/15 03:43:46;;;;;;;14.13;9.97;;;;;;;;;;2613842;54;20378;-71
2024/01/15 03:49:16;;;;;;;22.20;5.87;;;;;;;;;;2613431;54;20378;-76
2024/01/15 03:54:45;;;;;;;14.97;6.90;;;;;;;;;;2615858;54;20371;-76
2024/01/15 04:00:17;;;;;;;9.20;6.57;;;;;;;;;;2614462;54;20444;-71
2024/01/15 04:05:47;;;;;;;12.50;7.97;;;;;;;;;;2614326;54;20362;-74
2024/01/15 04:14:55;;;;;;;11.43;6.23;;;;;;;;;;2612742;54;20483;-75
2024/01/15 04:20:24;;;;;;;10.67;7.53;;;;;;;;;;2612912;54;20370;-75
2024/01/15 04:25:54;;;;;;;28.03;12.43;;;;;;;;;;2613492;54;20359;-75
2024/01/15 04:31:24;;;;;;;21.60;12.50;;;;;;;;;;2613736;54;20369;-74
2024/01/15 04:36:53;;;;;;;16.50;7.17;;;;;;;;;;2613745;54;20374;-74
2024/01/15 04:42:23;;;;;;;18.47;11.63;;;;;;;;;;2613085;54;20410;-73
2024/01/15 04:47:53;;;;;;;24.50;13.97;;;;;;;;;;2612933;54;20496;-74
2024/01/15 04:53:22;;;;;;;7.30;6.10;;;;;;;;;;2613176;54;20382;-74
2024/01/15 04:58:52;;;;;;;9.63;6.17;;;;;;;;;;2613017;54;20937;-74
2024/01/15 05:04:21;;;;;;;17.03;10.73;;;;;;;;;;2613043;54;20443;-77
2024/01/15 05:09:51;;;;;;;18.93;10.23;;;;;;;;;;2614021;54;20354;-75
2024/01/15 05:15:21;;;;;;;26.03;13.73;;;;;;;;;;2613461;39;20764;-77
2024/01/15 05:20:52;;;;;;;12.33;6.60;;;;;;;;;;2612710;54;20535;-74
2024/01/15 05:26:22;;;;;;;13.57;6.30;;;;;;;;;;2614626;54;20924;-75
2024/01/15 05:31:51;;;;;;;23.90;10.20;;;;;;;;;;2613852;54;20402;-74
2024/01/15 05:37:21;;;;;;;15.00;8.70;;;;;;;;;;2613800;54;20353;-74
2024/01/15 05:42:50;;;;;;;24.73;10.40;;;;;;;;;;2614753;46;20818;-75
2024/01/15 05:48:20;;;;;;;12.17;7.17;;;;;;;;;;2613380;54;20395;-72
2024/01/15 05:53:50;;;;;;;20.67;11.73;;;;;;;;;;2615036;39;20739;-71
2024/01/15 05:59:20;;;;;;;10.97;7.47;;;;;;;;;;2613650;54;20378;-72
2024/01/15 06:04:49;;;;;;;8.53;5.27;;;;;;;;;;2613273;54;20936;-73
2024/01/15 06:10:19;;;;;;;9.27;6.40;;;;;;;;;;2613797;54;20478;-73
2024/01/15 06:15:49;;;;;;;9.77;6.50;;;;;;;;;;2614044;54;20980;-71
2024/01/15 06:21:18;;;;;;;12.97;9.50;;;;;;;;;;2614240;54;22014;-71
2024/01/15 06:26:48;;;;;;;11.13;7.80;;;;;;;;;;2613984;54;20431;-72
2024/01/15 06:32:18;;;;;;;13.97;8.83;;;;;;;;;;2614002;54;20374;-74
2024/01/15 06:37:48;;;;;;;8.43;5.50;;;;;;;;;;2614063;54;20933;-74
2024/01/15 06:43:18;;;;;;;9.50;5.83;;;;;;;;;;2613632;54;20521;-75
2024/01/15 06:48:48;;;;;;;11.63;5.90;;;;;;;;;;2614101;54;20398;-75
2024/01/15 06:54:17;;;;;;;9.37;4.77;;;;;;;;;;2614377;54;20372;-78
2024/01/15 06:59:47;;;;;;;13.60;7.50;;;;;;;;;;2614952;54;20508;-75
2024/01/15 07:05:17;;;;;;;15.07;10.23;;;;;;;;;;2614043;46;20362;-76
2024/01/15 07:16:54;;;;;;;8.30;5.30;;;;;;;;;;2614246;54;20374;-76
2024/01/15 07:22:23;;;;;;;5.87;3.90;;;;;;;;;;2614685;39;21070;-76
2024/01/15 07:27:54;;;;;;;4.07;2.50;;;;;;;;;;2613350;54;20349;-76
2024/01/15 07:33:23;;;;;;;4.83;3.30;;;;;;;;;;2613383;54;20338;-79
2024/01/15 07:38:53;;;;;;;6.07;3.00;;;;;;;;;;2613113;54;20388;-77
2024/01/15 07:41:24;;;;;;;5.63;3.13;;;;;;;;;;2611779;46;20411;-76
2024/01/15 07:43:50;;;;;;;6.07;4.17;;;;;;;;;;2609771;54;20383;-77
2024/01/15 07:49:19;;;;;;;6.70;4.40;;;;;;;;;;2612331;54;20552;-74
2024/01/15 07:54:49;;;;;;;2.73;2.50;;;;;;;;;;2613050;54;20475;-71
2024/01/15 08:00:19;;;;;;;6.33;3.77;;;;;;;;;;2612515;39;20842;-73
2024/01/15 08:05:52;;;;;;;9.63;4.13;;;;;;;;;;2612756;39;20863;-71
2024/01/15 08:11:21;;;;;;;7.00;4.27;;;;;;;;;;2612113;54;21002;-73
2024/01/15 08:16:51;;;;;;;13.40;6.33;;;;;;;;;;2611811;54;20395;-75
2024/01/15 08:22:21;;;;;;;8.10;5.37;;;;;;;;;;2613248;54;20540;-77
2024/01/15 08:27:50;;;;;;;16.70;7.47;;;;;;;;;;2613864;54;20399;-78
2024/01/15 08:33:20;;;;;;;15.50;9.40;;;;;;;;;;2613629;54;21233;-80
2024/01/15 08:38:50;;;;;;;12.77;8.43;;;;;;;;;;2613897;54;20387;-78
2024/01/15 08:44:20;;;;;;;15.30;7.40;;;;;;;;;;2613369;54;20372;-77
2024/01/15 08:49:49;;;;;;;9.03;6.63;;;;;;;;;;2614224;54;21366;-78
2024/01/15 08:55:22;;;;;;;13.93;10.33;;;;;;;;;;2614312;39;20573;-79
2024/01/15 09:00:52;;;;;;;15.33;10.27;;;;;;;;;;2615474;54;20471;-79
2024/01/15 09:06:21;;;;;;;9.10;7.60;;;;;;;;;;2616329;54;20358;-78
2024/01/15 09:15:32;;;;;;;23.20;11.70;;;;;;;;;;2616389;54;20385;-81
2024/01/15 09:21:02;;;;;;;11.17;7.93;;;;;;;;;;2615379;54;20369;-80
2024/01/15 09:26:32;;;;;;;19.67;10.03;;;;;;;;;;2616452;54;20355;-80
2024/01/15 09:32:03;;;;;;;17.60;9.20;;;;;;;;;;2616159;54;20370;-78
2024/01/15 09:37:32;;;;;;;15.30;10.40;;;;;;;;;;2615060;54;20397;-78
2024/01/15 09:43:02;;;;;;;12.43;8.23;;;;;;;;;;2613468;54;20454;-77
2024/01/15 09:48:34;;;;;;;9.33;5.60;;;;;;;;;;2613505;54;20406;-76
2024/01/15 09:54:04;;;;;;;10.83;7.33;;;;;;;;;;2612002;54;20956;-78
2024/01/15 09:59:33;;;;;;;20.27;10.73;;;;;;;;;;2612954;54;20386;-77
2024/01/15 10:05:03;;;;;;;9.57;6.47;;;;;;;;;;2612550;54;20394;-78
2024/01/15 10:10:33;;;;;;;12.80;7.63;;;;;;;;;;2613393;54;20387;-78
2024/01/15 10:16:03;;;;;;;14.33;9.07;;;;;;;;;;2613769;54;20322;-79
2024/01/15 10:21:36;;;;;;;20.87;8.73;;;;;;;;;;2613622;39;20771;-77
2024/01/15 10:27:07;;;;;;;14.30;9.13;;;;;;;;;;2612614;54;20455;-78
2024/01/15 10:32:36;;;;;;;13.67;8.60;;;;;;;;;;2612888;54;20439;-78
2024/01/15 10:38:07;;;;;;;15.40;9.80;;;;;;;;;;2612647;54;20490;-79
2024/01/15 10:43:37;;;;;;;10.70;6.60;;;;;;;;;;2614294;54;20379;-75
2024/01/15 10:49:07;;;;;;;16.10;7.37;;;;;;;;;;2614467;54;20349;-76
2024/01/15 10:54:37;;;;;;;10.93;6.63;;;;;;;;;;2615293;54;20373;-75
2024/01/15 11:00:08;;;;;;;9.23;5.90;;;;;;;;;;2614473;54;20382;-76
2024/01/15 11:05:44;;;;;;;13.97;10.87;;;;;;;;;;2614480;54;20374;-78
2024/01/15 11:17:02;;;;;;;8.17;4.80;;;;;;;;;;2613824;54;20398;-78
2024/01/15 11:22:34;;;;;;;8.47;5.80;;;;;;;;;;2612962;54;20494;-78
2024/01/15 11:28:04;;;;;;;8.67;4.30;;;;;;;;;;2613900;54;20361;-76
2024/01/15 11:33:33;;;;;;;10.20;4.60;;;;;;;;;;2614254;54;20396;-76
2024/01/15 11:45:12;;;;;;;6.87;4.90;;;;;;;;;;2613655;54;20426;-77
2024/01/15 11:50:51;;;;;;;5.20;4.10;;;;;;;;;;2614425;54;20474;-77
2024/01/15 11:56:23;;;;;;;6.73;5.47;;;;;;;;;;2613981;54;20443;-83
2024/01/15 12:01:52;;;;;;;8.83;4.47;;;;;;;;;;2615809;39;20950;-81
2024/01/15 12:07:21;;;;;;;5.30;3.50;;;;;;;;;;2613144;54;20957;-80
2024/01/15 12:16:12;;;;;;;7.63;5.57;;;;;;;;;;2617212;54;20499;-83
2024/01/15 12:21:41;;;;;;;5.57;4.77;;;;;;;;;;2613771;54;20496;-77
2024/01/15 12:27:11;;;;;;;5.40;4.50;;;;;;;;;;2615183;39;21059;-79
2024/01/15 12:32:42;;;;;;;6.13;5.07;;;;;;;;;;2615441;54;20390;-80
2024/01/15 12:38:11;;;;;;;4.70;4.30;;;;;;;;;;2616244;39;20473;-80
2024/01/15 12:43:41;;;;;;;4.53;3.23;;;;;;;;;;2617173;31;20867;-81
2024/01/15 12:49:11;;;;;;;5.13;4.23;;;;;;;;;;2614226;54;20399;-80
2024/01/15 12:54:40;;;;;;;5.73;4.50;;;;;;;;;;2615729;54;20371;-80
2024/01/15 13:00:14;;;;;;;10.17;6.30;;;;;;;;;;2615236;54;20424;-80
2024/01/15 13:05:45;;;;;;;4.60;4.13;;;;;;;;;;2616255;54;21058;-81
2024/01/15 13:11:14;;;;;;;5.07;4.53;;;;;;;;;;2615867;54;20431;-79
2024/01/15 13:16:44;;;;;;;4.97;4.47;;;;;;;;;;2615787;54;20499;-81
2024/01/15 13:22:14;;;;;;;10.87;5.67;;;;;;;;;;2616137;54;20370;-78
2024/01/15 13:27:44;;;;;;;9.20;6.27;;;;;;;;;;2614367;54;20404;-79
2024/01/15 13:33:13;;;;;;;7.00;4.70;;;;;;;;;;2613312;54;20981;-80
2024/01/15 13:38:43;;;;;;;7.40;5.93;;;;;;;;;;2614244;54;20424;-78
2024/01/15 13:44:13;;;;;;;5.27;4.37;;;;;;;;;;2615714;39;20490;-79
2024/01/15 13:49:42;;;;;;;7.33;4.27;;;;;;;;;;2616742;54;20407;-81
2024/01/15 13:55:12;;;;;;;4.67;3.00;;;;;;;;;;2618219;54;20378;-74
2024/01/15 14:00:42;;;;;;;4.90;4.13;;;;;;;;;;2613801;54;20958;-74
2024/01/15 14:06:11;;;;;;;9.33;6.83;;;;;;;;;;2613743;54;20367;-74
2024/01/15 14:11:41;;;;;;;9.17;6.20;;;;;;;;;;2613455;54;20414;-77
2024/01/15 14:23:19;;;;;;;10.53;4.93;;;;;;;;;;2613821;54;20436;-77
2024/01/15 14:28:48;;;;;;;5.63;3.77;;;;;;;;;;2614127;54;20554;-78
2024/01/15 14:34:18;;;;;;;10.27;6.60;;;;;;;;;;2615723;54;20392;-79
2024/01/15 14:39:48;;;;;;;7.57;4.60;;;;;;;;;;2615115;54;20399;-78
2024/01/15 14:45:18;;;;;;;9.27;5.00;;;;;;;;;;2615020;54;20382;-79
2024/01/15 14:50:47;;;;;;;4.87;3.10;;;;;;;;;;2615095;54;20368;-77
2024/01/15 14:56:17;;;;;;;8.90;6.00;;;;;;;;;;2613820;54;20415;-76
2024/01/15 15:01:47;;;;;;;2.40;2.20;;;;;;;;;;2614467;54;20405;-76
2024/01/15 15:07:17;;;;;;;11.30;6.30;;;;;;;;;;2613546;54;20939;-77
2024/01/15 15:12:46;;;;;;;54.87;4.30;;;;;;;;;;2610550;54;20407;-77
2024/01/15 15:21:57;;;;;;;6.90;2.67;;;;;;;;;;2611327;54;20386;-78
2024/01/15 15:27:28;;;;;;;8.17;4.03;;;;;;;;;;2610988;54;20393;-76
2024/01/15 15:32:58;;;;;;;7.03;4.70;;;;;;;;;;2611115;39;20746;-72
2024/01/15 15:38:28;;;;;;;11.20;3.70;;;;;;;;;;2611298;54;20401;-72
2024/01/15 15:43:57;;;;;;;4.77;2.87;;;;;;;;;;2609825;54;20362;-74
2024/01/15 15:49:27;;;;;;;3.97;3.17;;;;;;;;;;2610709;54;20400;-70
2024/01/15 15:54:56;;;;;;;9.80;6.60;;;;;;;;;;2609559;54;20408;-71
2024/01/15 16:00:26;;;;;;;10.43;4.37;;;;;;;;;;2612124;31;20839;-76
2024/01/15 16:05:56;;;;;;;5.40;4.00;;;;;;;;;;2612902;54;20406;-75
2024/01/15 16:11:26;;;;;;;12.30;3.40;;;;;;;;;;2613722;54;20490;-76
2024/01/15 16:16:57;;;;;;;15.93;10.43;;;;;;;;;;2614822;54;20391;-75
2024/01/15 16:22:27;;;;;;;12.37;8.13;;;;;;;;;;2612385;54;20450;-76
2024/01/15 16:27:57;;;;;;;6.40;3.80;;;;;;;;;;2614073;54;20403;-77
2024/01/15 16:33:27;;;;;;;8.10;4.87;;;;;;;;;;2614375;54;20406;-77
2024/01/15 16:38:56;;;;;;;7.47;3.87;;;;;;;;;;2613310;54;20373;-76
2024/01/15 16:44:26;;;;;;;13.87;6.67;;;;;;;;;;2614491;54;20509;-77
2024/01/15 16:49:57;;;;;;;6.03;4.37;;;;;;;;;;2616070;54;20400;-77
2024/01/15 16:55:27;;;;;;;5.37;4.33;;;;;;;;;;2614876;54;20511;-77
2024/01/15 17:01:00;;;;;;;13.50;7.70;;;;;;;;;;2615800;54;20395;-76
2024/01/15 17:06:32;;;;;;;13.93;6.80;;;;;;;;;;2616430;39;20774;-76
2024/01/15 17:12:04;;;;;;;15.23;9.63;;;;;;;;;;2616187;54;20382;-76
2024/01/15 17:17:35;;;;;;;9.80;7.10;;;;;;;;;;2616155;39;20525;-76
2024/01/15 17:26:33;;;;;;;14.50;9.50;;;;;;;;;;2611694;54;20397;-76
2024/01/15 17:32:03;;;;;;;17.87;11.20;;;;;;;;;;2612501;54;20398;-76
2024/01/15 17:37:33;;;;;;;8.40;6.70;;;;;;;;;;2614484;54;20411;-75
2024/01/15 17:43:02;;;;;;;6.43;4.77;;;;;;;;;;2615875;54;20395;-75
2024/01/15 17:48:32;;;;;;;10.33;7.30;;;;;;;;;;2615324;54;20410;-75
2024/01/15 17:54:04;;;;;;;5.43;4.10;;;;;;;;;;2613800;54;20372;-76
2024/01/15 17:59:33;;;;;;;11.00;6.73;;;;;;;;;;2613334;54;22920;-77
2024/01/15 18:05:04;;;;;;;6.97;4.27;;;;;;;;;;2614688;54;20961;-76
2024/01/15 18:10:34;;;;;;;10.93;5.73;;;;;;;;;;2615360;54;20416;-76
2024/01/15 18:16:03;;;;;;;14.37;8.90;;;;;;;;;;2615385;54;20572;-75
2024/01/15 18:21:33;;;;;;;3.60;2.97;;;;;;;;;;2614344;54;20499;-74
2024/01/15 18:27:03;;;;;;;6.60;5.37;;;;;;;;;;2615150;54;20441;-74
2024/01/15 18:32:33;;;;;;;6.23;4.80;;;;;;;;;;2614521;39;20731;-74
2024/01/15 18:38:02;;;;;;;8.10;4.33;;;;;;;;;;2613532;54;20383;-73
2024/01/15 18:43:32;;;;;;;9.80;7.10;;;;;;;;;;2614775;54;20444;-76
2024/01/15 18:49:02;;;;;;;8.83;4.40;;;;;;;;;;2614328;54;20409;-75
2024/01/15 18:54:32;;;;;;;13.90;7.87;;;;;;;;;;2614479;54;20347;-76
2024/01/15 19:00:01;;;;;;;10.20;7.07;;;;;;;;;;2614034;54;20371;-77
2024/01/15 19:05:31;;;;;;;5.67;4.50;;;;;;;;;;2614341;54;20367;-77
2024/01/15 19:11:01;;;;;;;8.27;5.97;;;;;;;;;;2614891;54;20390;-78
2024/01/15 19:16:31;;;;;;;6.53;5.37;;;;;;;;;;2615212;54;20411;-78
2024/01/15 19:22:01;;;;;;;5.77;4.90;;;;;;;;;;2614698;54;20408;-77
2024/01/15 19:31:09;;;;;;;7.20;6.20;;;;;;;;;;2615450;54;20414;-77
2024/01/15 19:36:39;;;;;;;16.20;12.03;;;;;;;;;;2615915;39;20803;-77
2024/01/15 19:42:09;;;;;;;24.37;5.00;;;;;;;;;;2614725;54;20929;-77
2024/01/15 19:47:39;;;;;;;5.20;4.03;;;;;;;;;;2615376;54;20370;-78
2024/01/15 19:53:09;;;;;;;8.73;5.60;;;;;;;;;;2614103;54;20391;-75
2024/01/15 19:58:38;;;;;;;10.47;6.53;;;;;;;;;;2613936;54;20367;-74
2024/01/15 20:04:08;;;;;;;19.43;4.60;;;;;;;;;;2614630;54;20363;-78
2024/01/15 20:09:37;;;;;;;13.53;4.30;;;;;;;;;;2614638;54;20986;-76
2024/01/15 20:15:07;;;;;;;9.13;4.23;;;;;;;;;;2615036;54;20400;-77
2024/01/15 20:20:37;;;;;;;3.80;2.53;;;;;;;;;;2615190;31;20970;-77
2024/01/15 20:26:07;;;;;;;5.30;3.93;;;;;;;;;;2614738;54;21259;-79
2024/01/15 20:31:37;;;;;;;8.47;3.37;;;;;;;;;;2614803;54;20422;-77
2024/01/15 20:37:06;;;;;;;4.83;4.37;;;;;;;;;;2615146;54;20846;-77
2024/01/15 20:42:36;;;;;;;6.30;4.40;;;;;;;;;;2614804;54;20424;-77
2024/01/15 20:48:06;;;;;;;5.00;2.80;;;;;;;;;;2614579;54;20398;-75
2024/01/15 20:53:35;;;;;;;6.50;5.30;;;;;;;;;;2614835;54;20370;-77
2024/01/15 20:59:05;;;;;;;6.17;3.53;;;;;;;;;;2615357;54;20375;-75
2024/01/15 21:04:34;;;;;;;10.63;5.27;;;;;;;;;;2615927;39;20791;-76
2024/01/15 21:10:04;;;;;;;8.13;5.40;;;;;;;;;;2615357;54;20352;-76
2024/01/15 21:15:35;;;;;;;8.73;5.77;;;;;;;;;;2615387;54;20409;-77
2024/01/15 21:21:04;;;;;;;9.60;5.60;;;;;;;;;;2615290;54;20396;-77
2024/01/15 21:26:34;;;;;;;14.37;7.17;;;;;;;;;;2615581;39;20784;-76
2024/01/15 21:35:45;;;;;;;6.93;4.90;;;;;;;;;;2614258;54;20447;-75
2024/01/15 21:41:14;;;;;;;30.17;6.47;;;;;;;;;;2614819;54;20953;-75
2024/01/15 21:46:44;;;;;;;9.23;5.47;;;;;;;;;;2614889;54;20362;-76
2024/01/15 21:52:14;;;;;;;6.47;4.90;;;;;;;;;;2613745;54;20402;-78
2024/01/15 21:57:44;;;;;;;5.27;4.30;;;;;;;;;;2615845;39;20740;-77
2024/01/15 22:03:14;;;;;;;8.80;5.77;;;;;;;;;;2614711;39;20780;-77
2024/01/15 22:08:44;;;;;;;10.33;5.80;;;;;;;;;;2614587;54;20400;-76
2024/01/15 22:14:14;;;;;;;9.80;6.80;;;;;;;;;;2613675;54;20408;-76
2024/01/15 22:19:44;;;;;;;14.00;9.33;;;;;;;;;;2615072;39;21424;-77
2024/01/15 22:25:14;;;;;;;11.83;8.33;;;;;;;;;;2613607;54;20342;-76
2024/01/15 22:30:43;;;;;;;6.40;4.30;;;;;;;;;;2613874;54;20383;-75
2024/01/15 22:39:48;;;;;;;5.50;4.17;;;;;;;;;;2612132;54;20398;-76
2024/01/15 22:45:17;;;;;;;10.40;7.20;;;;;;;;;;2610956;54;20462;-74
2024/01/15 22:50:47;;;;;;;8.23;5.97;;;;;;;;;;2612721;54;20418;-74
2024/01/15 22:56:20;;;;;;;10.93;7.00;;;;;;;;;;2613392;54;20488;-75
2024/01/15 23:01:49;;;;;;;20.43;9.63;;;;;;;;;;2612948;54;20394;-75
2024/01/15 23:07:19;;;;;;;12.17;7.87;;;;;;;;;;2610578;54;20391;-74
2024/01/15 23:12:49;;;;;;;12.30;8.97;;;;;;;;;;2611945;54;20932;-74
2024/01/15 23:18:19;;;;;;;11.27;6.90;;;;;;;;;;2612146;54;20374;-73
2024/01/15 23:23:48;;;;;;;9.10;6.50;;;;;;;;;;2610974;54;20379;-75
2024/01/15 23:29:18;;;;;;;13.90;6.00;;;;;;;;;;2611332;54;20415;-75
2024/01/15 23:34:48;;;;;;;11.90;7.83;;;;;;;;;;2611955;54;20398;-76
2024/01/15 23:40:18;;;;;;;14.73;6.60;;;;;;;;;;2612136;54;20358;-76
2024/01/15 23:45:47;;;;;;;8.37;5.67;;;;;;;;;;2613706;54;20362;-75
2024/01/15 23:51:17;;;;;;;9.13;5.50;;;;;;;;;;2612481;54;20418;-75
2024/01/15 23:56:47;;;;;;;15.47;9.20;;;;;;;;;;2611264;54;20373;-76
